KATL/ATL METAR and TAF weather

Enter ICAO airport designator
Station Type Date Time Source
KATL METAR 2021/07/26 13:52 UTC NOAA

KATL 261352Z 27007KT 8SM FEW018 FEW050 SCT110 28/23 A3004 RMK AO2 SLP162 T02780228


Station Type Date Time Source
KATL Decoded METAR 2021/07/26 13:52 UTC NOAA

HARTSFIELD-JACKSON ATLANTA, GA, United States (KATL) 33-39N 84-26W
Jul 26, 2021 - 09:52 AM EDT / 2021.07.26 1352 UTC
Wind: from the W (270 degrees) at 8 MPH (7 KT):0
Visibility: 8 mile(s):0
Sky conditions: partly cloudy
Temperature: 82.0 F (27.8 C)
Dew Point: 73.0 F (22.8 C)
Relative Humidity: 74%
Pressure (altimeter): 30.04 in. Hg (1017 hPa)
ob: KATL 261352Z 27007KT 8SM FEW018 FEW050 SCT110 28/23 A3004 RMK AO2 SLP162 T02780228
cycle: 14

Station Type Date Time Source
KATL TAF 2021/07/26 14:55 UTC NOAA

TAF
AMD KATL 261355Z 2614/2718 28005KT P6SM FEW020 SCT120
FM261600 29007KT P6SM VCSH BKN045 PROB30 2623/2701 4SM TSRA BKN030CB BKN060
FM270300 04005KT P6SM SCT060 BKN120
FM270800 05004KT 5SM BR SCT020
FM271400 26004KT P6SM SCT050

Example: see airport list